Información del aeropuerto LEAL

Información de pista
Pista 10 Longitud 9842 ft Anchura 148 ft
Elevación 142 ft Umbral 0 ft Rumbo 100
Pista 28 Longitud 9842 ft Anchura 148 ft
Elevación 44 ft Umbral 0 ft Rumbo 280
Frecuencias del aeropuerto
Tipo APP Nombre APP Frecuencia 118.8 MHZ
Tipo ATIS Nombre ATIS Frecuencia 113.8 MHZ
Tipo GND Nombre GND Frecuencia 121.7 MHZ
Tipo TWR Nombre TWR Frecuencia 118.15 MHZ
Radioayudas del aeropuerto
Tipo VOR-DME Nombre Alicante Frecuencia 113800 KHZ
Tipo VOR-DME Nombre Alicante Frecuencia 114650 KHZ
Información meteorológica del aeropuerto y NOTAM
ADDS - METARS form results

(0911 UTC 19 April 2021)
Data provider http://aviationweather.gov/metar/data/
 
METAR text: LEAL 190900Z 23011KT 200V260 CAVOK 17/11 Q1019 NOSIG
Conditions at: LEAL (ALICANTE/EL ALTE, ES) observed 0900 UTC 19 April 2021
Temperature: 17.0°C (63°F)
Dewpoint: 11.0°C (52°F) [RH = 68%]
Pressure (altimeter): 30.09 inches Hg (1019.0 mb)
Winds: from the SW (230 degrees) at 13 MPH (11 knots; 5.7 m/s)
Visibility: 6 or more miles (10+ km)
Ceiling: ceiling and visibility are OK
Clouds: unknown
Weather: no significant weather observed at this time

METAR text: LEAL 190830Z 23009KT 200V270 CAVOK 16/11 Q1019 NOSIG
Conditions at: LEAL (ALICANTE/EL ALTE, ES) observed 0830 UTC 19 April 2021
Temperature: 16.0°C (61°F)
Dewpoint: 11.0°C (52°F) [RH = 72%]
Pressure (altimeter): 30.09 inches Hg (1019.0 mb)
Winds: from the SW (230 degrees) at 10 MPH (9 knots; 4.6 m/s)
Visibility: 6 or more miles (10+ km)
Ceiling: ceiling and visibility are OK
Clouds: unknown
Weather: no significant weather observed at this time

Forecast for: LEAL (ALICANTE/EL ALTE, ES)
Text: TAF LEAL 190500Z 1906/2006 31006KT 9999 FEW025 TX20/1912Z TN08/1906Z
Forecast period: 0600 UTC 19 April 2021 to 0600 UTC 20 April 2021
Forecast type: FROM: standard forecast or significant change
Winds: from the NW (310 degrees) at 7 MPH (6 knots; 3.1 m/s)
Visibility: 6 or more miles (10+ km)
Ceiling: at least 12,000 feet AGL
Clouds: few clouds at 2500 feet AGL
Weather: no significant weather forecast for this period
Text: BECMG 1906/1909 19011KT
Forecast period: 0600 to 2000 UTC 19 April 2021
Forecast type: BECOMING: Conditions expected to become as follows by 0900 UTC 19 April 2021
Winds: from the S (190 degrees) at 13 MPH (11 knots; 5.7 m/s)
Visibility: 6 or more miles (10+ km)
Ceiling: at least 12,000 feet AGL
Clouds: few clouds at 2500 feet AGL
Weather: no significant weather forecast for this period
Text: BECMG 1920/1923 VRB03KT
Forecast period: 2000 UTC 19 April 2021 to 0600 UTC 20 April 2021
Forecast type: BECOMING: Conditions expected to become as follows by 2300 UTC 19 April 2021
Winds: variable direction winds at 3 MPH (3 knots; 1.5 m/s)
Visibility: 6 or more miles (10+ km)
Ceiling: at least 12,000 feet AGL
Clouds: few clouds at 2500 feet AGL
Weather: no significant weather forecast for this period